Enchant, Canada
Current Conditions -  °F | °C
As of 3:00 AM on Friday 31 Oct 2014 (Local Time) from CYQL Reporting Station
Clear Clear  
Wind Chill: 39°   Ceiling: Unl
Heat Index: 43°   Visibility: 9mi
Dew Point: 36°   Wind: 6mph
Humidity: 76%   Direction: 170°S
Pressure: 29.85"   Gusts: NA
Location:  50.17°N, 112.42°W
Report Text: CYQL 310900Z AUTO 17005KT 9SM CLR 06/02 A2985 RMK SLP123
Loading
Personal Weather Stations






























Interactive Weather Map
Tropical Storm Tracking
New forecast layout! Learn more

10-Day Weather Forecast

Advertisements
Track Severe Weather on mobile